Sturgeon, Missouri
Current Conditions -  °F | °C
As of 3:19 AM on Friday 19 Dec 2014 (Local Time) from KCOU Reporting Station
Haze Haze  
Wind Chill: 26°   Ceiling: 300
Heat Index: 32°   Visibility: 3mi
Dew Point: 31°   Wind: 6mph
Humidity: 96%   Direction: 90°E
Pressure: 30.26"   Gusts: NA
Location:  39.23°N, 92.28°W
Report Text: KCOU 190919Z AUTO 09005KT 3SM BR OVC003 00/M01 A3026 RMK AO2 T00001006
Loading
Personal Weather Stations






























Interactive Weather Map New forecast layout! Learn more

10-Day Weather Forecast

Advertisements
Track Severe Weather on mobile